Terminal Aerodrome Forecast
Issued by NWS

Home | Current Version | Previous Version | Text Only | Print | Product List | Glossary On
Versions: 1 2 3 4 5 6 7 8 9 10 11 12 13 14 15
000
FTUS45 KGJT 250520
TAFEGE
TAF
KEGE 250520Z 2506/2606 09004KT P6SM SKC
     FM252000 26008KT P6SM FEW120 SCT250
     FM260100 23008KT P6SM SCT250
     FM260200 16006KT P6SM SCT250
      AMD LTD TO CLD VIS AND WIND TIL 251300=

USA.gov is the U.S. government's official web portal to all federal, state and local government web resources and services.